createdAt,value
2018-09-13T00:01:38.945Z,85.40
2018-09-13T00:04:07.874Z,85.70
2018-09-13T00:06:36.975Z,85.60
2018-09-13T00:09:07.369Z,85.50
2018-09-13T00:11:35.661Z,85.60
2018-09-13T00:14:04.423Z,86.10
2018-09-13T00:16:33.223Z,86.50
2018-09-13T00:19:01.518Z,87.00
2018-09-13T00:21:29.907Z,88.40
2018-09-13T00:23:58.103Z,89.40
2018-09-13T00:26:26.431Z,90.00
2018-09-13T00:28:54.919Z,90.20
2018-09-13T00:31:23.277Z,90.40
2018-09-13T00:33:51.569Z,90.50
2018-09-13T00:36:20.475Z,90.60
2018-09-13T00:38:48.720Z,90.70
2018-09-13T00:41:16.963Z,91.10
2018-09-13T00:43:45.228Z,90.80
2018-09-13T00:46:13.575Z,90.80
2018-09-13T00:48:41.739Z,90.80
2018-09-13T00:51:10.129Z,90.70
2018-09-13T00:53:38.194Z,90.70
2018-09-13T00:56:06.362Z,90.80
2018-09-13T00:58:34.492Z,90.80
2018-09-13T01:01:02.608Z,90.90
2018-09-13T01:03:30.765Z,91.00
2018-09-13T01:05:58.957Z,91.10
2018-09-13T01:08:27.093Z,91.10
2018-09-13T01:10:55.268Z,91.10
2018-09-13T01:13:23.432Z,91.10
2018-09-13T01:15:51.568Z,91.00
2018-09-13T01:18:19.728Z,91.00
2018-09-13T01:20:47.860Z,90.90
2018-09-13T01:23:15.963Z,90.90
2018-09-13T01:25:44.081Z,90.90
2018-09-13T01:28:12.215Z,91.00
2018-09-13T01:30:40.366Z,91.00
2018-09-13T01:33:10.035Z,91.10
2018-09-13T01:35:38.191Z,91.20
2018-09-13T01:38:06.259Z,91.20
2018-09-13T01:40:34.383Z,91.20
2018-09-13T01:43:03.357Z,91.50
2018-09-13T01:45:33.165Z,91.50
2018-09-13T01:48:01.319Z,91.70
2018-09-13T01:50:29.520Z,91.70
2018-09-13T01:52:57.663Z,91.80
2018-09-13T01:55:25.766Z,92.00
2018-09-13T01:57:53.907Z,92.00
2018-09-13T02:00:22.088Z,92.30
2018-09-13T02:02:50.297Z,91.70
2018-09-13T02:05:18.485Z,91.60
2018-09-13T02:07:46.742Z,91.60
2018-09-13T02:10:15.945Z,91.70
2018-09-13T02:12:44.656Z,91.70
2018-09-13T02:15:12.911Z,91.70
2018-09-13T02:17:41.099Z,91.60
2018-09-13T02:20:09.278Z,91.70
2018-09-13T02:22:37.416Z,91.80
2018-09-13T02:25:05.572Z,91.80
2018-09-13T02:27:37.181Z,91.90
2018-09-13T02:30:05.865Z,91.80
2018-09-13T02:32:34.003Z,91.70
2018-09-13T02:35:02.523Z,91.60
2018-09-13T02:37:30.687Z,91.60
2018-09-13T02:39:58.831Z,91.70
2018-09-13T02:42:26.969Z,91.90
2018-09-13T02:44:55.107Z,91.90
2018-09-13T02:47:23.212Z,92.00
2018-09-13T02:49:51.529Z,91.90
2018-09-13T02:52:19.689Z,92.00
2018-09-13T02:54:47.811Z,92.00
2018-09-13T02:57:15.955Z,92.00
2018-09-13T02:59:44.117Z,92.10
2018-09-13T03:02:12.716Z,92.10
2018-09-13T03:04:40.940Z,92.10
2018-09-13T03:07:09.079Z,92.20
2018-09-13T03:09:37.206Z,92.20
2018-09-13T03:12:05.359Z,92.10
2018-09-13T03:14:33.510Z,92.20
2018-09-13T03:17:01.628Z,92.20
2018-09-13T03:19:29.860Z,92.30
2018-09-13T03:21:59.262Z,92.40
2018-09-13T03:24:27.402Z,92.50
2018-09-13T03:26:55.524Z,92.60
2018-09-13T03:29:23.650Z,92.70
2018-09-13T03:31:51.805Z,92.70
2018-09-13T03:34:19.956Z,92.80
2018-09-13T03:36:48.080Z,93.00
2018-09-13T03:39:23.789Z,93.20
2018-09-13T03:41:53.137Z,93.30
2018-09-13T03:44:21.284Z,93.40
2018-09-13T03:46:49.401Z,93.70
2018-09-13T03:49:17.546Z,93.90
2018-09-13T03:51:45.676Z,94.00
2018-09-13T03:54:13.791Z,94.10
2018-09-13T03:56:41.909Z,94.10
2018-09-13T03:59:10.053Z,94.20
2018-09-13T04:01:38.194Z,94.20
2018-09-13T04:04:06.445Z,94.10
2018-09-13T04:06:34.576Z,94.20
2018-09-13T04:09:02.797Z,94.30
2018-09-13T04:11:30.923Z,94.40
2018-09-13T04:13:59.059Z,94.50
2018-09-13T04:16:27.207Z,94.40
2018-09-13T04:18:55.485Z,94.50
2018-09-13T04:21:23.519Z,94.50
2018-09-13T04:23:54.771Z,94.70
2018-09-13T04:26:22.916Z,95.00
2018-09-13T04:28:51.619Z,94.80
2018-09-13T04:31:19.740Z,94.90
2018-09-13T04:33:47.869Z,95.00
2018-09-13T04:36:15.973Z,94.80
2018-09-13T04:38:44.157Z,95.00
2018-09-13T04:41:12.320Z,95.00
2018-09-13T04:43:40.701Z,95.10
2018-09-13T04:46:08.882Z,95.10
2018-09-13T04:48:37.008Z,95.20
2018-09-13T04:51:05.376Z,95.20
2018-09-13T04:53:33.785Z,95.30
2018-09-13T04:56:01.903Z,95.50
2018-09-13T04:58:30.053Z,95.30
2018-09-13T05:00:58.188Z,95.30
2018-09-13T05:03:27.155Z,95.30
2018-09-13T05:05:55.421Z,95.30
2018-09-13T05:08:23.589Z,95.30
2018-09-13T05:10:52.319Z,95.10
2018-09-13T05:13:20.551Z,95.00
2018-09-13T05:15:48.703Z,95.00
2018-09-13T05:18:16.837Z,95.10
2018-09-13T05:20:45.952Z,95.20
2018-09-13T05:23:14.189Z,95.20
2018-09-13T05:25:42.338Z,95.20
2018-09-13T05:28:10.523Z,95.20
2018-09-13T05:30:38.659Z,95.30
2018-09-13T05:33:06.781Z,95.30
2018-09-13T05:35:34.903Z,95.20
2018-09-13T05:38:03.367Z,95.00
2018-09-13T05:40:31.469Z,94.80
2018-09-13T05:43:01.113Z,94.80
2018-09-13T05:45:29.717Z,94.80
2018-09-13T05:47:58.080Z,94.70
2018-09-13T05:50:26.199Z,94.60
2018-09-13T05:52:56.775Z,94.40
2018-09-13T05:55:25.437Z,94.30
2018-09-13T05:57:53.592Z,94.10
2018-09-13T06:00:21.747Z,94.40
2018-09-13T06:02:49.866Z,94.60
2018-09-13T06:05:18.128Z,94.70
2018-09-13T06:07:48.989Z,94.90
2018-09-13T06:10:17.267Z,94.80
2018-09-13T06:12:45.472Z,94.90
2018-09-13T06:15:13.649Z,94.90
2018-09-13T06:17:41.775Z,94.10
2018-09-13T06:20:09.962Z,94.30
2018-09-13T06:22:38.735Z,93.90
2018-09-13T06:25:06.893Z,93.70
2018-09-13T06:27:35.107Z,93.40
2018-09-13T06:30:03.265Z,93.40
2018-09-13T06:32:31.409Z,93.20
2018-09-13T06:34:59.529Z,93.00
2018-09-13T06:37:27.739Z,93.00
2018-09-13T06:39:55.905Z,93.30
2018-09-13T06:42:24.105Z,93.20
2018-09-13T06:44:52.465Z,92.90
2018-09-13T06:47:20.627Z,93.00
2018-09-13T06:49:48.759Z,92.70
2018-09-13T06:52:16.967Z,92.50
2018-09-13T06:54:45.152Z,92.20
2018-09-13T06:57:13.279Z,92.20
2018-09-13T06:59:42.660Z,91.70
2018-09-13T07:02:10.861Z,91.40
2018-09-13T07:04:39.098Z,91.40
2018-09-13T07:07:07.240Z,91.50
2018-09-13T07:09:35.475Z,91.60
2018-09-13T07:12:03.609Z,91.40
2018-09-13T07:14:31.773Z,91.40
2018-09-13T07:17:00.142Z,91.40
2018-09-13T07:19:28.404Z,91.30
2018-09-13T07:21:56.607Z,91.50
2018-09-13T07:24:24.774Z,91.50
2018-09-13T07:26:52.903Z,91.40
2018-09-13T07:29:20.988Z,91.50
2018-09-13T07:31:49.171Z,91.70
2018-09-13T07:34:17.309Z,91.50
2018-09-13T07:36:45.590Z,91.40
2018-09-13T07:39:14.328Z,91.80
2018-09-13T07:41:42.484Z,91.80
2018-09-13T07:44:10.644Z,91.60
2018-09-13T07:46:38.844Z,91.50
2018-09-13T07:49:07.046Z,91.80
2018-09-13T07:51:35.192Z,92.00
2018-09-13T07:54:03.357Z,92.00
2018-09-13T07:56:31.559Z,92.50
2018-09-13T07:58:59.739Z,92.20
2018-09-13T08:01:27.888Z,92.60
2018-09-13T08:03:56.228Z,92.50
2018-09-13T08:06:24.398Z,92.50
2018-09-13T08:08:52.584Z,92.30
2018-09-13T08:11:20.731Z,92.40
2018-09-13T08:13:48.854Z,92.80
2018-09-13T08:16:17.030Z,92.70
2018-09-13T08:18:45.324Z,92.20
2018-09-13T08:21:13.493Z,92.20
2018-09-13T08:23:41.864Z,91.70
2018-09-13T08:26:10.002Z,91.90
2018-09-13T08:28:38.166Z,92.10
2018-09-13T08:31:06.327Z,92.20
2018-09-13T08:33:34.507Z,91.50
2018-09-13T08:36:02.721Z,91.30
2018-09-13T08:38:30.895Z,91.30
2018-09-13T08:40:59.044Z,91.00
2018-09-13T08:43:27.256Z,91.20
2018-09-13T08:45:55.466Z,91.20
2018-09-13T08:48:23.604Z,90.80
2018-09-13T08:50:51.787Z,91.00
2018-09-13T08:53:19.968Z,91.20
2018-09-13T08:55:48.109Z,90.80
2018-09-13T08:58:16.230Z,90.90
2018-09-13T09:00:45.687Z,91.20
2018-09-13T09:03:13.806Z,91.60
2018-09-13T09:05:41.970Z,91.80
2018-09-13T09:08:10.123Z,91.50
2018-09-13T09:10:38.256Z,91.20
2018-09-13T09:13:06.432Z,91.40
2018-09-13T09:15:34.602Z,91.50
2018-09-13T09:18:02.758Z,91.50
2018-09-13T09:20:30.889Z,91.20
2018-09-13T09:22:59.062Z,91.30
2018-09-13T09:25:27.196Z,91.50
2018-09-13T09:27:55.360Z,91.40
2018-09-13T09:30:23.518Z,91.50
2018-09-13T09:32:51.691Z,91.70
2018-09-13T09:35:19.826Z,91.90
2018-09-13T09:37:47.954Z,91.70
2018-09-13T09:40:16.727Z,92.10
2018-09-13T09:42:44.936Z,92.00
2018-09-13T09:45:13.224Z,92.20
2018-09-13T09:47:41.422Z,92.00
2018-09-13T09:50:09.586Z,91.60
2018-09-13T09:52:37.705Z,91.70
2018-09-13T09:55:05.844Z,91.60
2018-09-13T09:57:34.612Z,91.70
2018-09-13T10:00:02.756Z,91.90
2018-09-13T10:02:31.498Z,91.80
2018-09-13T10:04:59.642Z,92.00
2018-09-13T10:07:27.784Z,92.00
2018-09-13T10:09:55.940Z,92.00
2018-09-13T10:12:24.792Z,92.30
2018-09-13T10:14:58.337Z,91.80
2018-09-13T10:17:32.099Z,91.70
2018-09-13T10:20:05.735Z,92.00
2018-09-13T10:22:39.408Z,91.90
2018-09-13T10:25:13.058Z,92.10
2018-09-13T10:27:46.826Z,92.20
2018-09-13T10:30:20.424Z,92.00
2018-09-13T10:32:54.150Z,92.00
2018-09-13T10:35:27.670Z,92.10
2018-09-13T10:38:01.272Z,92.00
2018-09-13T10:40:34.983Z,92.10
2018-09-13T10:43:08.670Z,92.20
2018-09-13T10:45:42.949Z,92.60
2018-09-13T10:48:16.706Z,92.20
2018-09-13T10:50:50.662Z,92.30
2018-09-13T10:53:22.304Z,92.20
2018-09-13T10:55:50.482Z,92.30
2018-09-13T10:58:19.886Z,92.00
2018-09-13T11:00:48.075Z,91.80
2018-09-13T11:03:16.248Z,91.80
2018-09-13T11:05:44.512Z,91.30
2018-09-13T11:08:12.623Z,91.30
2018-09-13T11:10:40.967Z,91.30
2018-09-13T11:13:14.226Z,91.20
2018-09-13T11:15:43.839Z,91.00
2018-09-13T11:18:12.149Z,90.70
2018-09-13T11:20:40.320Z,90.00
2018-09-13T11:23:08.453Z,89.90
2018-09-13T11:25:36.595Z,89.00
2018-09-13T11:28:04.734Z,88.60
2018-09-13T11:30:32.939Z,87.70
2018-09-13T11:33:01.553Z,87.70
2018-09-13T11:35:29.738Z,87.60
2018-09-13T11:37:57.905Z,87.40
2018-09-13T11:40:26.164Z,87.70
2018-09-13T11:42:54.268Z,88.50
2018-09-13T11:45:22.469Z,88.60
2018-09-13T11:47:51.106Z,88.40
2018-09-13T11:50:19.298Z,88.50
2018-09-13T11:52:47.438Z,87.70
2018-09-13T11:55:15.557Z,88.10
2018-09-13T11:57:43.715Z,87.00
2018-09-13T12:00:11.834Z,86.60
2018-09-13T12:02:39.974Z,86.00
2018-09-13T12:05:08.160Z,85.50
2018-09-13T12:07:36.310Z,85.40
2018-09-13T12:10:04.420Z,85.50
2018-09-13T12:12:32.593Z,85.10
2018-09-13T12:15:02.311Z,84.30
2018-09-13T12:17:30.468Z,83.40
2018-09-13T12:19:59.216Z,84.00
2018-09-13T12:22:27.495Z,84.20
2018-09-13T12:24:55.594Z,84.10
2018-09-13T12:27:23.787Z,84.30
2018-09-13T12:29:51.912Z,84.70
2018-09-13T12:32:20.054Z,84.60
2018-09-13T12:34:51.844Z,84.50
2018-09-13T12:37:19.970Z,84.40
2018-09-13T12:39:48.092Z,84.30
2018-09-13T12:42:16.264Z,84.00
2018-09-13T12:44:44.476Z,84.10
2018-09-13T12:47:12.628Z,84.30
2018-09-13T12:49:40.802Z,83.60
2018-09-13T12:52:09.012Z,83.40
2018-09-13T12:54:37.157Z,83.40
2018-09-13T12:57:05.530Z,83.30
2018-09-13T12:59:34.248Z,83.20
2018-09-13T13:02:02.366Z,83.20
2018-09-13T13:04:30.530Z,82.00
2018-09-13T13:06:58.673Z,81.30
2018-09-13T13:09:26.852Z,81.00
2018-09-13T13:11:54.958Z,80.70
2018-09-13T13:14:23.112Z,80.60
2018-09-13T13:16:52.104Z,80.90
2018-09-13T13:19:20.244Z,81.30
2018-09-13T13:21:48.388Z,81.00
2018-09-13T13:24:17.134Z,81.00
2018-09-13T13:26:45.304Z,80.70
2018-09-13T13:29:13.449Z,81.00
2018-09-13T13:31:41.610Z,81.50
2018-09-13T13:34:09.750Z,81.30
2018-09-13T13:36:37.887Z,82.00
2018-09-13T13:39:07.680Z,82.80
2018-09-13T13:41:37.132Z,82.50
2018-09-13T13:44:05.368Z,82.60
2018-09-13T13:46:33.478Z,82.50
2018-09-13T13:49:01.620Z,82.50
2018-09-13T13:51:29.775Z,82.50
2018-09-13T13:53:57.963Z,82.30
2018-09-13T13:56:26.252Z,82.30
2018-09-13T13:58:54.402Z,82.30
2018-09-13T14:01:22.565Z,82.50
2018-09-13T14:03:52.374Z,81.80
2018-09-13T14:06:20.619Z,82.00
2018-09-13T14:08:48.778Z,82.20
2018-09-13T14:11:16.930Z,82.00
2018-09-13T14:13:45.110Z,81.90
2018-09-13T14:16:13.218Z,82.00
2018-09-13T14:18:42.551Z,81.90
2018-09-13T14:21:10.686Z,82.20
2018-09-13T14:23:38.868Z,82.90
2018-09-13T14:26:07.036Z,83.90
2018-09-13T14:28:35.222Z,83.80
2018-09-13T14:31:03.385Z,83.80
2018-09-13T14:33:31.565Z,84.10
2018-09-13T14:36:06.250Z,84.00
2018-09-13T14:38:34.424Z,83.90
2018-09-13T14:41:02.647Z,83.80
2018-09-13T14:43:30.862Z,83.40
2018-09-13T14:45:59.056Z,83.70
2018-09-13T14:48:27.210Z,83.80
2018-09-13T14:50:55.347Z,84.40
2018-09-13T14:53:23.463Z,84.70
2018-09-13T14:55:53.011Z,85.30
2018-09-13T14:58:21.173Z,85.50
2018-09-13T15:00:49.319Z,85.60
2018-09-13T15:03:17.462Z,85.90
2018-09-13T15:05:45.602Z,86.10
2018-09-13T15:08:15.062Z,86.10
2018-09-13T15:10:43.207Z,85.80
2018-09-13T15:13:11.377Z,86.10
2018-09-13T15:15:39.679Z,86.10
2018-09-13T15:18:08.035Z,86.50
2018-09-13T15:20:36.429Z,86.90
2018-09-13T15:23:05.270Z,87.70
2018-09-13T15:25:33.446Z,87.40
2018-09-13T15:28:01.580Z,87.70
2018-09-13T15:30:29.736Z,88.10
2018-09-13T15:32:57.933Z,88.40
2018-09-13T15:35:26.116Z,88.80
2018-09-13T15:37:54.302Z,88.90
2018-09-13T15:40:22.502Z,88.90
2018-09-13T15:42:50.684Z,89.10
2018-09-13T15:45:19.051Z,89.40
2018-09-13T15:47:47.191Z,89.80
2018-09-13T15:50:15.476Z,90.00
2018-09-13T15:52:43.784Z,90.20
2018-09-13T15:55:11.930Z,90.60
2018-09-13T15:57:40.090Z,90.90
2018-09-13T16:00:08.693Z,91.30
2018-09-13T16:02:37.302Z,91.80
2018-09-13T16:05:05.500Z,91.90
2018-09-13T16:07:33.649Z,92.50
2018-09-13T16:10:01.814Z,93.30
2018-09-13T16:12:30.024Z,92.80
2018-09-13T16:14:58.216Z,92.90
2018-09-13T16:17:26.347Z,92.90
2018-09-13T16:19:54.620Z,93.50
2018-09-13T16:22:22.780Z,93.20
2018-09-13T16:24:50.995Z,94.10
2018-09-13T16:27:19.143Z,94.80
2018-09-13T16:29:47.639Z,95.10
2018-09-13T16:32:20.208Z,94.90
2018-09-13T16:34:48.958Z,95.90
2018-09-13T16:37:21.778Z,96.00
2018-09-13T16:39:55.895Z,96.10
2018-09-13T16:42:29.592Z,96.10
2018-09-13T16:44:58.218Z,96.10
2018-09-13T16:47:32.439Z,96.10
2018-09-13T16:50:02.019Z,96.40
2018-09-13T16:52:32.032Z,96.80
2018-09-13T16:55:00.294Z,96.80
2018-09-13T16:57:28.551Z,96.80
2018-09-13T16:59:57.441Z,96.60
2018-09-13T17:02:25.628Z,96.80
2018-09-13T17:04:53.869Z,97.00
2018-09-13T17:07:22.055Z,97.10
2018-09-13T17:09:50.204Z,97.40
2018-09-13T17:12:18.399Z,97.10
2018-09-13T17:14:48.063Z,97.50
2018-09-13T17:17:16.239Z,97.60
2018-09-13T17:19:44.411Z,97.60
2018-09-13T17:22:12.569Z,97.30
2018-09-13T17:24:40.849Z,97.50
2018-09-13T17:27:09.069Z,97.30
2018-09-13T17:29:37.271Z,97.30
2018-09-13T17:32:05.627Z,97.30
2018-09-13T17:34:34.376Z,97.50
2018-09-13T17:37:02.539Z,97.70
2018-09-13T17:39:31.280Z,97.90
2018-09-13T17:42:02.449Z,97.80
2018-09-13T17:44:30.621Z,97.90
2018-09-13T17:46:58.795Z,97.90
2018-09-13T17:49:26.997Z,98.20
2018-09-13T17:51:55.311Z,97.80
2018-09-13T17:54:23.899Z,97.80
2018-09-13T17:56:58.809Z,97.80
2018-09-13T17:59:27.212Z,97.90
2018-09-13T18:01:55.377Z,97.80
2018-09-13T18:04:23.543Z,97.80
2018-09-13T18:06:52.664Z,97.80
2018-09-13T18:09:20.854Z,98.10
2018-09-13T18:11:49.093Z,98.10
2018-09-13T18:14:17.258Z,98.30
2018-09-13T18:16:45.383Z,98.20
2018-09-13T18:19:13.588Z,98.40
2018-09-13T18:21:41.774Z,98.30
2018-09-13T18:24:10.050Z,98.10
2018-09-13T18:26:38.526Z,98.10
2018-09-13T18:29:08.781Z,98.10
2018-09-13T18:31:36.957Z,98.10
2018-09-13T18:34:06.451Z,98.00
2018-09-13T18:36:34.693Z,98.00
2018-09-13T18:39:06.256Z,97.90
2018-09-13T18:41:34.538Z,98.00
2018-09-13T18:44:03.797Z,97.90
2018-09-13T18:46:34.188Z,98.10
2018-09-13T18:49:02.424Z,98.10
2018-09-13T18:51:30.702Z,98.30
2018-09-13T18:53:58.924Z,98.50
2018-09-13T18:56:28.309Z,98.40
2018-09-13T18:58:56.466Z,98.30
2018-09-13T19:01:24.679Z,98.40
2018-09-13T19:03:52.960Z,98.80
2018-09-13T19:06:21.458Z,98.60
2018-09-13T19:08:50.314Z,98.50
2018-09-13T19:11:18.476Z,98.40
2018-09-13T19:13:47.146Z,98.50
2018-09-13T19:16:15.410Z,98.70
2018-09-13T19:18:44.128Z,98.70
2018-09-13T19:21:12.288Z,98.70
2018-09-13T19:23:40.510Z,99.00
2018-09-13T19:26:08.818Z,98.90
2018-09-13T19:28:37.236Z,98.80
2018-09-13T19:31:05.880Z,98.70
2018-09-13T19:33:34.046Z,98.80
2018-09-13T19:36:02.234Z,99.00
2018-09-13T19:38:30.464Z,98.90
2018-09-13T19:40:58.620Z,99.00
2018-09-13T19:43:27.652Z,99.10
2018-09-13T19:45:55.904Z,98.90
2018-09-13T19:48:24.146Z,99.00
2018-09-13T19:50:52.418Z,99.10
2018-09-13T19:53:20.546Z,99.00
2018-09-13T19:55:48.701Z,99.00
2018-09-13T19:58:16.888Z,99.10
2018-09-13T20:00:45.275Z,99.10
2018-09-13T20:03:13.679Z,99.20
2018-09-13T20:05:41.934Z,98.90
2018-09-13T20:08:10.066Z,98.80
2018-09-13T20:10:38.210Z,99.00
2018-09-13T20:13:06.372Z,99.10
2018-09-13T20:15:34.645Z,98.80
2018-09-13T20:18:02.949Z,98.80
2018-09-13T20:20:31.080Z,99.10
2018-09-13T20:22:59.321Z,99.20
2018-09-13T20:25:27.557Z,99.20
2018-09-13T20:27:55.836Z,99.20
2018-09-13T20:30:24.032Z,99.30
2018-09-13T20:32:52.496Z,99.60
2018-09-13T20:35:20.790Z,99.30
2018-09-13T20:37:48.946Z,99.30
2018-09-13T20:40:17.152Z,99.10
2018-09-13T20:42:45.357Z,98.80
2018-09-13T20:45:13.499Z,98.80
2018-09-13T20:47:41.668Z,98.90
2018-09-13T20:50:09.851Z,98.70
2018-09-13T20:52:38.592Z,98.80
2018-09-13T20:55:06.874Z,98.80
2018-09-13T20:57:35.096Z,98.80
2018-09-13T21:00:03.465Z,99.30
2018-09-13T21:02:31.662Z,98.70
2018-09-13T21:04:59.796Z,98.70
2018-09-13T21:07:27.992Z,98.70
2018-09-13T21:09:56.122Z,98.90
2018-09-13T21:12:24.268Z,98.90
2018-09-13T21:14:52.408Z,98.80
2018-09-13T21:17:20.542Z,98.80
2018-09-13T21:19:48.709Z,98.80
2018-09-13T21:22:16.872Z,98.80
2018-09-13T21:24:48.905Z,98.80
2018-09-13T21:27:18.476Z,98.80
2018-09-13T21:29:46.644Z,98.80
2018-09-13T21:32:15.015Z,99.10
2018-09-13T21:34:44.636Z,98.80
2018-09-13T21:37:12.842Z,98.70
2018-09-13T21:39:42.298Z,98.40
2018-09-13T21:42:10.457Z,98.50
2018-09-13T21:44:38.606Z,98.60
2018-09-13T21:47:06.903Z,98.80
2018-09-13T21:49:35.066Z,98.70
2018-09-13T21:52:03.255Z,98.70
2018-09-13T21:54:31.359Z,98.80
2018-09-13T21:56:59.542Z,98.90
2018-09-13T21:59:27.674Z,98.90
2018-09-13T22:01:55.820Z,99.00
2018-09-13T22:04:24.004Z,99.00
2018-09-13T22:06:52.154Z,99.10
2018-09-13T22:09:20.261Z,99.20
2018-09-13T22:11:48.435Z,99.10
2018-09-13T22:14:16.549Z,99.20
2018-09-13T22:16:44.715Z,99.20
2018-09-13T22:19:12.887Z,99.10
2018-09-13T22:21:41.042Z,99.10
2018-09-13T22:24:09.251Z,99.30
2018-09-13T22:26:37.480Z,99.30
2018-09-13T22:29:06.017Z,99.10
2018-09-13T22:31:34.996Z,99.00
2018-09-13T22:34:06.583Z,99.00
2018-09-13T22:36:35.237Z,99.10
2018-09-13T22:39:04.903Z,99.00
2018-09-13T22:41:33.008Z,99.00
2018-09-13T22:44:01.148Z,98.90
2018-09-13T22:46:29.323Z,98.90
2018-09-13T22:48:57.478Z,98.80
2018-09-13T22:51:25.705Z,98.80
2018-09-13T22:53:53.890Z,98.80
2018-09-13T22:56:22.096Z,98.80
2018-09-13T22:58:50.284Z,98.90
2018-09-13T23:01:18.516Z,98.80
2018-09-13T23:03:46.654Z,98.60
2018-09-13T23:06:14.772Z,98.50
2018-09-13T23:08:42.967Z,98.80
2018-09-13T23:11:11.069Z,98.60
2018-09-13T23:13:39.310Z,98.90
2018-09-13T23:16:07.529Z,99.00
2018-09-13T23:18:35.723Z,99.00
2018-09-13T23:21:04.377Z,98.90
2018-09-13T23:23:33.814Z,98.90
2018-09-13T23:26:01.992Z,98.80
2018-09-13T23:28:30.152Z,98.80
2018-09-13T23:30:58.312Z,98.70
2018-09-13T23:33:26.472Z,98.80
2018-09-13T23:35:54.646Z,98.90
2018-09-13T23:38:22.882Z,98.60
2018-09-13T23:40:51.221Z,98.60
2018-09-13T23:43:19.300Z,98.70
2018-09-13T23:45:47.461Z,98.60
2018-09-13T23:48:15.630Z,98.60
2018-09-13T23:50:43.833Z,98.60
2018-09-13T23:53:12.360Z,98.60
2018-09-13T23:55:40.844Z,98.60
2018-09-13T23:58:08.990Z,98.50
